createdAt,value
2022-11-29T00:02:53.515Z,94600.47
2022-11-29T00:05:57.790Z,94595.38
2022-11-29T00:09:07.135Z,94604.28
2022-11-29T00:12:13.731Z,94603.09
2022-11-29T00:15:17.588Z,94601.03
2022-11-29T00:18:20.816Z,94600.50
2022-11-29T00:21:23.625Z,94610.09
2022-11-29T00:24:27.769Z,94601.03
2022-11-29T00:27:31.397Z,94597.78
2022-11-29T00:30:35.406Z,94598.94
2022-11-29T00:33:38.351Z,94593.59
2022-11-29T00:36:42.087Z,94595.78
2022-11-29T00:39:45.218Z,94593.66
2022-11-29T00:42:49.173Z,94589.91
2022-11-29T00:45:52.144Z,94586.16
2022-11-29T00:48:55.419Z,94593.41
2022-11-29T00:51:59.038Z,94593.78
2022-11-29T00:55:02.953Z,94587.19
2022-11-29T00:58:06.746Z,94597.75
2022-11-29T01:01:11.781Z,94587.38
2022-11-29T01:04:14.855Z,94590.69
2022-11-29T01:07:17.920Z,94588.59
2022-11-29T01:10:21.095Z,94601.22
2022-11-29T01:13:24.086Z,94597.41
2022-11-29T01:16:28.679Z,94601.09
2022-11-29T01:19:32.145Z,94591.06
2022-11-29T01:22:36.560Z,94589.47
2022-11-29T01:25:39.375Z,94584.44
2022-11-29T01:28:43.181Z,94583.13
2022-11-29T01:31:46.971Z,94581.13
2022-11-29T01:34:50.310Z,94570.91
2022-11-29T01:37:53.211Z,94566.84
2022-11-29T01:41:05.599Z,94572.72
2022-11-29T01:44:15.028Z,94563.56
2022-11-29T01:47:19.984Z,94565.06
2022-11-29T01:50:23.108Z,94562.38
2022-11-29T01:53:26.136Z,94560.88
2022-11-29T01:56:30.991Z,94562.94
2022-11-29T01:59:35.284Z,94560.66
2022-11-29T02:03:01.062Z,94560.72
2022-11-29T02:06:05.415Z,94558.78
2022-11-29T02:09:28.747Z,94564.31
2022-11-29T02:12:55.622Z,94558.72
2022-11-29T02:16:28.796Z,94551.63
2022-11-29T02:20:25.710Z,94553.63
2022-11-29T02:23:37.353Z,94552.41
2022-11-29T02:26:56.140Z,94549.81
2022-11-29T02:30:06.211Z,94544.47
2022-11-29T02:33:20.786Z,94537.78
2022-11-29T02:36:39.776Z,94551.78
2022-11-29T02:40:01.122Z,94538.75
2022-11-29T02:43:30.200Z,94542.19
2022-11-29T02:46:48.501Z,94543.59
2022-11-29T02:50:16.507Z,94533.53
2022-11-29T02:53:26.858Z,94522.91
2022-11-29T02:56:43.913Z,94518.78
2022-11-29T03:00:15.595Z,94526.50
2022-11-29T03:03:33.028Z,94523.28
2022-11-29T03:06:51.347Z,94519.16
2022-11-29T03:10:10.782Z,94507.50
2022-11-29T03:13:42.892Z,94512.00
2022-11-29T03:17:17.946Z,94502.50
2022-11-29T03:20:29.305Z,94497.56
2022-11-29T03:23:38.707Z,94488.81
2022-11-29T03:26:46.582Z,94480.03
2022-11-29T03:29:54.936Z,94471.38
2022-11-29T03:33:06.335Z,94466.78
2022-11-29T03:36:17.611Z,94468.25
2022-11-29T03:39:57.139Z,94469.41
2022-11-29T03:43:25.349Z,94471.13
2022-11-29T03:46:32.285Z,94468.63
2022-11-29T03:49:38.374Z,94467.78
2022-11-29T03:52:56.031Z,94460.44
2022-11-29T03:56:05.845Z,94463.03
2022-11-29T03:59:31.310Z,94458.69
2022-11-29T04:03:18.915Z,94450.97
2022-11-29T04:06:40.351Z,94450.53
2022-11-29T04:10:05.645Z,94437.84
2022-11-29T04:13:50.051Z,94430.19
2022-11-29T04:17:05.721Z,94435.44
2022-11-29T04:20:14.403Z,94435.03
2022-11-29T04:23:45.112Z,94424.16
2022-11-29T04:27:07.469Z,94422.81
2022-11-29T04:30:24.251Z,94419.16
2022-11-29T04:33:43.653Z,94413.22
2022-11-29T04:37:19.409Z,94411.03
2022-11-29T04:40:59.737Z,94405.50
2022-11-29T04:44:11.572Z,94394.31
2022-11-29T04:47:39.300Z,94399.63
2022-11-29T04:50:54.307Z,94375.28
2022-11-29T04:54:27.498Z,94379.28
2022-11-29T04:57:40.143Z,94379.75
2022-11-29T05:01:08.836Z,94382.25
2022-11-29T05:04:11.729Z,94382.22
2022-11-29T05:07:35.909Z,94376.78
2022-11-29T05:10:50.352Z,94372.03
2022-11-29T05:14:08.843Z,94371.28
2022-11-29T05:17:43.139Z,94363.06
2022-11-29T05:21:04.982Z,94366.78
2022-11-29T05:24:27.616Z,94368.09
2022-11-29T05:27:47.906Z,94363.06
2022-11-29T05:31:25.402Z,94359.56
2022-11-29T05:34:57.909Z,94359.06
2022-11-29T05:38:09.952Z,94352.66
2022-11-29T05:41:27.182Z,94354.91
2022-11-29T05:44:47.308Z,94350.44
2022-11-29T05:47:58.621Z,94343.97
2022-11-29T05:51:15.675Z,94359.06
2022-11-29T05:54:34.508Z,94355.84
2022-11-29T05:57:54.717Z,94360.50
2022-11-29T06:01:06.725Z,94361.22
2022-11-29T06:04:21.885Z,94354.38
2022-11-29T06:07:48.876Z,94357.94
2022-11-29T06:11:05.236Z,94349.06
2022-11-29T06:14:26.510Z,94354.56
2022-11-29T06:17:49.371Z,94346.38
2022-11-29T06:21:23.187Z,94343.38
2022-11-29T06:25:07.285Z,94347.78
2022-11-29T06:28:16.446Z,94345.19
2022-11-29T06:31:40.376Z,94344.44
2022-11-29T06:34:55.053Z,94354.34
2022-11-29T06:37:59.680Z,94352.16
2022-11-29T06:41:02.993Z,94345.38
2022-11-29T06:44:07.054Z,94349.34
2022-11-29T06:47:32.394Z,94340.38
2022-11-29T06:51:12.997Z,94343.66
2022-11-29T06:54:37.909Z,94344.06
2022-11-29T06:58:02.052Z,94344.09
2022-11-29T07:01:20.193Z,94354.66
2022-11-29T07:04:52.474Z,94349.50
2022-11-29T07:07:58.768Z,94345.00
2022-11-29T07:11:02.242Z,94340.53
2022-11-29T07:14:06.243Z,94342.53
2022-11-29T07:17:33.545Z,94346.78
2022-11-29T07:20:49.023Z,94348.06
2022-11-29T07:24:00.896Z,94350.44
2022-11-29T07:27:36.060Z,94357.78
2022-11-29T07:31:01.346Z,94356.97
2022-11-29T07:34:20.731Z,94355.25
2022-11-29T07:37:45.779Z,94367.88
2022-11-29T07:41:18.266Z,94361.94
2022-11-29T07:44:37.225Z,94353.31
2022-11-29T07:47:40.898Z,94360.50
2022-11-29T07:50:45.438Z,94358.78
2022-11-29T07:53:49.034Z,94369.97
2022-11-29T07:56:52.091Z,94369.72
2022-11-29T07:59:56.052Z,94380.09
2022-11-29T08:02:59.858Z,94380.19
2022-11-29T08:06:04.368Z,94383.94
2022-11-29T08:09:08.282Z,94374.69
2022-11-29T08:12:11.634Z,94383.31
2022-11-29T08:15:15.541Z,94375.84
2022-11-29T08:18:19.542Z,94377.59
2022-11-29T08:21:22.446Z,94381.69
2022-11-29T08:24:27.144Z,94383.72
2022-11-29T08:27:30.132Z,94390.16
2022-11-29T08:30:33.834Z,94387.03
2022-11-29T08:33:41.621Z,94391.19
2022-11-29T08:36:45.482Z,94386.06
2022-11-29T08:39:49.226Z,94389.47
2022-11-29T08:42:53.249Z,94385.47
2022-11-29T08:45:56.318Z,94389.81
2022-11-29T08:49:01.206Z,94382.69
2022-11-29T08:52:23.335Z,94379.22
2022-11-29T08:55:29.196Z,94381.03
2022-11-29T08:58:32.395Z,94382.03
2022-11-29T09:01:36.303Z,94386.22
2022-11-29T09:04:39.290Z,94380.03
2022-11-29T09:07:42.799Z,94388.22
2022-11-29T09:10:46.351Z,94392.34
2022-11-29T09:13:52.818Z,94398.50
2022-11-29T09:16:55.770Z,94395.63
2022-11-29T09:19:58.783Z,94390.63
2022-11-29T09:23:02.757Z,94397.16
2022-11-29T09:26:07.714Z,94391.97
2022-11-29T09:29:11.592Z,94390.50
2022-11-29T09:32:15.183Z,94395.91
2022-11-29T09:35:18.224Z,94397.41
2022-11-29T09:38:21.114Z,94391.09
2022-11-29T09:41:48.086Z,94398.38
2022-11-29T09:45:09.157Z,94393.94
2022-11-29T09:48:24.064Z,94384.13
2022-11-29T09:52:00.581Z,94385.84
2022-11-29T09:55:24.583Z,94385.56
2022-11-29T09:58:37.903Z,94377.84
2022-11-29T10:01:48.814Z,94375.59
2022-11-29T10:05:02.078Z,94373.25
2022-11-29T10:08:17.539Z,94372.06
2022-11-29T10:11:29.879Z,94365.81
2022-11-29T10:14:58.274Z,94374.66
2022-11-29T10:18:05.678Z,94369.47
2022-11-29T10:21:18.316Z,94378.94
2022-11-29T10:24:23.975Z,94370.59
2022-11-29T10:27:30.277Z,94361.44
2022-11-29T10:30:36.063Z,94366.88
2022-11-29T10:33:42.165Z,94367.00
2022-11-29T10:36:50.343Z,94371.66
2022-11-29T10:40:08.471Z,94364.84
2022-11-29T10:43:11.845Z,94362.34
2022-11-29T10:46:25.943Z,94361.13
2022-11-29T10:49:35.199Z,94357.41
2022-11-29T10:52:38.591Z,94355.25
2022-11-29T10:56:09.271Z,94348.81
2022-11-29T10:59:22.601Z,94346.09
2022-11-29T11:02:26.482Z,94348.41
2022-11-29T11:05:29.714Z,94347.66
2022-11-29T11:08:34.942Z,94352.09
2022-11-29T11:11:39.450Z,94347.13
2022-11-29T11:14:44.046Z,94347.66
2022-11-29T11:17:59.053Z,94354.56
2022-11-29T11:21:03.291Z,94350.53
2022-11-29T11:24:21.634Z,94355.03
2022-11-29T11:27:37.675Z,94347.66
2022-11-29T11:30:40.859Z,94352.56
2022-11-29T11:33:46.127Z,94354.59
2022-11-29T11:36:49.626Z,94353.75
2022-11-29T11:39:56.822Z,94354.44
2022-11-29T11:43:03.556Z,94349.78
2022-11-29T11:46:08.120Z,94357.22
2022-11-29T11:49:15.348Z,94347.81
2022-11-29T11:52:26.075Z,94355.00
2022-11-29T11:55:41.272Z,94351.41
2022-11-29T11:58:44.574Z,94347.97
2022-11-29T12:01:48.458Z,94345.53
2022-11-29T12:04:55.904Z,94346.03
2022-11-29T12:08:08.118Z,94347.31
2022-11-29T12:11:16.903Z,94349.06
2022-11-29T12:14:56.449Z,94352.56
2022-11-29T12:18:13.440Z,94355.94
2022-11-29T12:21:18.151Z,94358.16
2022-11-29T12:24:36.275Z,94366.50
2022-11-29T12:27:39.124Z,94363.50
2022-11-29T12:31:00.816Z,94368.16
2022-11-29T12:34:43.032Z,94370.75
2022-11-29T12:37:52.430Z,94381.66
2022-11-29T12:41:10.815Z,94366.28
2022-11-29T12:44:17.450Z,94363.06
2022-11-29T12:47:45.184Z,94368.59
2022-11-29T12:51:08.590Z,94370.63
2022-11-29T12:54:23.967Z,94366.63
2022-11-29T12:57:43.174Z,94366.13
2022-11-29T13:01:09.484Z,94365.69
2022-11-29T13:04:25.895Z,94370.16
2022-11-29T13:07:44.802Z,94372.84
2022-11-29T13:11:04.011Z,94361.69
2022-11-29T13:14:41.437Z,94354.25
2022-11-29T13:18:05.650Z,94363.34
2022-11-29T13:21:30.566Z,94361.84
2022-11-29T13:24:49.954Z,94358.81
2022-11-29T13:28:02.516Z,94362.34
2022-11-29T13:31:10.373Z,94361.16
2022-11-29T13:34:18.239Z,94354.31
2022-11-29T13:37:29.603Z,94363.19
2022-11-29T13:41:00.385Z,94359.38
2022-11-29T13:44:21.890Z,94371.50
2022-11-29T13:47:25.891Z,94373.78
2022-11-29T13:50:46.113Z,94377.06
2022-11-29T13:53:49.946Z,94376.28
2022-11-29T13:57:04.978Z,94383.66
2022-11-29T14:00:33.571Z,94384.63
2022-11-29T14:03:45.501Z,94386.59
2022-11-29T14:06:49.768Z,94385.53
2022-11-29T14:10:02.751Z,94383.38
2022-11-29T14:13:11.691Z,94385.09
2022-11-29T14:16:34.732Z,94381.34
2022-11-29T14:19:38.160Z,94380.97
2022-11-29T14:23:07.613Z,94381.22
2022-11-29T14:26:10.583Z,94381.38
2022-11-29T14:29:49.098Z,94380.84
2022-11-29T14:33:05.144Z,94389.72
2022-11-29T14:36:36.181Z,94379.56
2022-11-29T14:39:49.784Z,94384.22
2022-11-29T14:42:54.193Z,94386.31
2022-11-29T14:46:24.719Z,94387.38
2022-11-29T14:49:33.551Z,94393.50
2022-11-29T14:52:50.440Z,94387.19
2022-11-29T14:56:43.807Z,94385.31
2022-11-29T14:59:56.351Z,94385.00
2022-11-29T15:03:10.988Z,94384.31
2022-11-29T15:06:25.743Z,94378.63
2022-11-29T15:09:32.725Z,94378.94
2022-11-29T15:12:37.853Z,94372.28
2022-11-29T15:15:47.570Z,94367.50
2022-11-29T15:19:09.549Z,94371.31
2022-11-29T15:22:18.306Z,94380.38
2022-11-29T15:25:27.347Z,94381.59
2022-11-29T15:28:31.050Z,94388.25
2022-11-29T15:31:34.955Z,94389.34
2022-11-29T15:34:44.002Z,94392.81
2022-11-29T15:37:50.557Z,94392.81
2022-11-29T15:40:56.068Z,94395.31
2022-11-29T15:44:02.623Z,94392.41
2022-11-29T15:47:38.468Z,94394.41
2022-11-29T15:51:04.240Z,94389.19
2022-11-29T15:54:13.425Z,94387.84
2022-11-29T15:57:40.473Z,94385.50
2022-11-29T16:00:50.392Z,94387.47
2022-11-29T16:03:57.060Z,94378.94
2022-11-29T16:07:00.523Z,94377.38
2022-11-29T16:10:09.136Z,94390.03
2022-11-29T16:13:34.452Z,94381.94
2022-11-29T16:16:39.670Z,94381.84
2022-11-29T16:19:43.606Z,94383.84
2022-11-29T16:22:47.221Z,94387.63
2022-11-29T16:26:23.017Z,94381.09
2022-11-29T16:29:35.103Z,94385.84
2022-11-29T16:32:44.833Z,94378.41
2022-11-29T16:35:49.060Z,94383.88
2022-11-29T16:38:56.913Z,94380.69
2022-11-29T16:42:09.093Z,94378.66
2022-11-29T16:45:33.822Z,94380.28
2022-11-29T16:48:40.931Z,94385.28
2022-11-29T16:51:48.936Z,94380.78
2022-11-29T16:54:52.704Z,94384.00
2022-11-29T16:57:56.081Z,94392.28
2022-11-29T17:00:59.407Z,94391.22
2022-11-29T17:04:02.903Z,94394.94
2022-11-29T17:07:08.682Z,94393.88
2022-11-29T17:10:17.090Z,94393.59
2022-11-29T17:13:21.087Z,94405.56
2022-11-29T17:16:25.413Z,94399.44
2022-11-29T17:19:30.180Z,94412.53
2022-11-29T17:22:32.987Z,94408.34
2022-11-29T17:25:36.188Z,94405.25
2022-11-29T17:28:41.563Z,94413.19
2022-11-29T17:31:46.608Z,94409.66
2022-11-29T17:34:50.296Z,94412.84
2022-11-29T17:37:53.862Z,94409.84
2022-11-29T17:40:56.819Z,94418.78
2022-11-29T17:44:01.052Z,94416.94
2022-11-29T17:47:04.687Z,94423.69
2022-11-29T17:50:08.136Z,94415.31
2022-11-29T17:53:11.045Z,94424.69
2022-11-29T17:56:16.340Z,94412.53
2022-11-29T17:59:22.158Z,94422.69
2022-11-29T18:02:25.426Z,94422.78
2022-11-29T18:05:34.502Z,94422.56
2022-11-29T18:08:43.168Z,94422.78
2022-11-29T18:11:49.343Z,94430.63
2022-11-29T18:14:52.982Z,94425.16
2022-11-29T18:17:55.839Z,94436.63
2022-11-29T18:21:00.928Z,94436.72
2022-11-29T18:24:06.422Z,94438.03
2022-11-29T18:27:10.061Z,94444.44
2022-11-29T18:30:14.019Z,94429.66
2022-11-29T18:33:17.325Z,94446.53
2022-11-29T18:36:23.067Z,94447.94
2022-11-29T18:39:26.275Z,94458.66
2022-11-29T18:42:29.971Z,94457.59
2022-11-29T18:45:40.094Z,94460.94
2022-11-29T18:48:45.355Z,94464.13
2022-11-29T18:51:50.864Z,94455.19
2022-11-29T18:54:54.910Z,94466.75
2022-11-29T18:57:57.738Z,94465.91
2022-11-29T19:01:12.610Z,94462.16
2022-11-29T19:04:19.252Z,94467.19
2022-11-29T19:07:22.200Z,94470.06
2022-11-29T19:10:25.441Z,94467.41
2022-11-29T19:13:28.548Z,94471.06
2022-11-29T19:16:35.262Z,94472.00
2022-11-29T19:19:38.319Z,94470.19
2022-11-29T19:22:42.289Z,94468.88
2022-11-29T19:25:45.125Z,94470.94
2022-11-29T19:28:48.605Z,94473.41
2022-11-29T19:31:52.495Z,94472.09
2022-11-29T19:34:55.520Z,94478.41
2022-11-29T19:37:58.379Z,94480.66
2022-11-29T19:41:01.342Z,94482.13
2022-11-29T19:44:07.493Z,94480.75
2022-11-29T19:47:11.392Z,94485.13
2022-11-29T19:50:15.008Z,94484.72
2022-11-29T19:53:18.960Z,94491.84
2022-11-29T19:56:23.607Z,94489.41
2022-11-29T19:59:27.194Z,94481.03
2022-11-29T20:02:30.824Z,94477.50
2022-11-29T20:05:34.914Z,94481.41
2022-11-29T20:08:39.092Z,94486.44
2022-11-29T20:11:42.776Z,94482.75
2022-11-29T20:14:46.339Z,94479.72
2022-11-29T20:17:53.213Z,94471.47
2022-11-29T20:20:56.707Z,94465.69
2022-11-29T20:24:01.863Z,94475.78
2022-11-29T20:27:05.975Z,94475.81
2022-11-29T20:30:11.328Z,94479.66
2022-11-29T20:33:22.102Z,94478.22
2022-11-29T20:36:46.131Z,94474.31
2022-11-29T20:40:04.268Z,94482.66
2022-11-29T20:43:17.357Z,94469.53
2022-11-29T20:46:21.388Z,94473.84
2022-11-29T20:49:25.575Z,94480.00
2022-11-29T20:53:02.454Z,94493.00
2022-11-29T20:56:06.556Z,94493.84
2022-11-29T20:59:10.088Z,94492.75
2022-11-29T21:02:13.689Z,94502.19
2022-11-29T21:05:17.451Z,94502.94
2022-11-29T21:08:22.799Z,94494.66
2022-11-29T21:11:26.010Z,94497.63
2022-11-29T21:14:29.546Z,94502.31
2022-11-29T21:17:33.969Z,94506.75
2022-11-29T21:20:37.472Z,94505.03
2022-11-29T21:24:01.141Z,94509.97
2022-11-29T21:27:05.009Z,94512.81
2022-11-29T21:30:20.909Z,94501.75
2022-11-29T21:33:25.040Z,94496.47
2022-11-29T21:36:29.128Z,94483.69
2022-11-29T21:39:34.891Z,94490.81
2022-11-29T21:42:38.542Z,94489.81
2022-11-29T21:45:43.715Z,94487.88
2022-11-29T21:48:46.705Z,94484.00
2022-11-29T21:51:50.344Z,94487.97
2022-11-29T21:54:53.197Z,94488.09
2022-11-29T21:57:56.726Z,94495.34
2022-11-29T22:01:10.083Z,94487.56
2022-11-29T22:04:13.150Z,94483.31
2022-11-29T22:07:16.828Z,94487.91
2022-11-29T22:10:20.552Z,94496.00
2022-11-29T22:13:24.291Z,94504.56
2022-11-29T22:16:27.687Z,94499.59
2022-11-29T22:19:35.662Z,94497.47
2022-11-29T22:22:39.177Z,94500.53
2022-11-29T22:25:42.149Z,94509.81
2022-11-29T22:28:44.956Z,94513.88
2022-11-29T22:31:51.304Z,94514.78
2022-11-29T22:34:54.205Z,94507.66
2022-11-29T22:37:58.043Z,94516.00
2022-11-29T22:41:13.945Z,94505.63
2022-11-29T22:44:17.318Z,94501.66
2022-11-29T22:47:20.576Z,94512.59
2022-11-29T22:50:23.443Z,94514.13
2022-11-29T22:53:27.381Z,94510.31
2022-11-29T22:56:33.564Z,94510.72
2022-11-29T22:59:37.140Z,94520.53
2022-11-29T23:02:40.638Z,94524.34
2022-11-29T23:05:43.542Z,94526.53
2022-11-29T23:08:48.433Z,94538.63
2022-11-29T23:11:56.781Z,94540.16
2022-11-29T23:15:02.461Z,94538.25
2022-11-29T23:18:06.680Z,94529.00
2022-11-29T23:21:15.357Z,94531.28
2022-11-29T23:24:18.249Z,94544.66
2022-11-29T23:27:21.052Z,94541.25
2022-11-29T23:30:24.784Z,94538.06
2022-11-29T23:33:28.457Z,94538.56
2022-11-29T23:36:31.571Z,94555.56
2022-11-29T23:39:35.092Z,94559.00
2022-11-29T23:42:41.361Z,94563.59
2022-11-29T23:45:46.775Z,94566.22
2022-11-29T23:48:50.886Z,94555.47
2022-11-29T23:51:53.810Z,94560.94
2022-11-29T23:54:57.753Z,94563.97
2022-11-29T23:58:03.837Z,94573.34
